createdAt,value
2023-04-15T00:01:49.355Z,6.61
2023-04-15T00:04:18.634Z,6.66
2023-04-15T00:06:55.463Z,6.67
2023-04-15T00:09:25.087Z,6.70
2023-04-15T00:11:59.402Z,6.73
2023-04-15T00:14:28.478Z,6.65
2023-04-15T00:16:57.994Z,6.74
2023-04-15T00:19:27.266Z,6.73
2023-04-15T00:21:58.927Z,6.76
2023-04-15T00:24:31.558Z,6.73
2023-04-15T00:26:58.989Z,6.78
2023-04-15T00:29:28.628Z,6.83
2023-04-15T00:31:58.108Z,6.83
2023-04-15T00:34:28.014Z,6.90
2023-04-15T00:36:59.906Z,6.93
2023-04-15T00:39:28.988Z,6.88
2023-04-15T00:42:03.373Z,6.96
2023-04-15T00:44:30.266Z,6.99
2023-04-15T00:47:03.041Z,6.93
2023-04-15T00:49:29.987Z,7.00
2023-04-15T00:51:59.183Z,6.99
2023-04-15T00:54:30.365Z,6.98
2023-04-15T00:56:59.747Z,7.01
2023-04-15T00:59:29.375Z,7.05
2023-04-15T01:01:58.692Z,7.06
2023-04-15T01:04:28.125Z,7.00
2023-04-15T01:06:57.612Z,7.02
2023-04-15T01:09:29.184Z,7.06
2023-04-15T01:11:58.758Z,7.09
2023-04-15T01:14:30.923Z,7.09
2023-04-15T01:17:00.020Z,7.11
2023-04-15T01:19:29.417Z,7.02
2023-04-15T01:21:57.769Z,7.04
2023-04-15T01:24:28.422Z,7.05
2023-04-15T01:26:57.743Z,7.03
2023-04-15T01:29:27.613Z,7.05
2023-04-15T01:32:02.274Z,7.06
2023-04-15T01:34:35.629Z,7.06
2023-04-15T01:37:07.527Z,6.96
2023-04-15T01:39:36.864Z,6.99
2023-04-15T01:42:11.248Z,7.00
2023-04-15T01:44:42.931Z,6.96
2023-04-15T01:47:19.507Z,6.99
2023-04-15T01:49:48.779Z,6.97
2023-04-15T01:52:16.000Z,6.97
2023-04-15T01:54:45.908Z,6.90
2023-04-15T01:57:19.765Z,6.95
2023-04-15T01:59:49.555Z,6.97
2023-04-15T02:02:16.438Z,6.94
2023-04-15T02:04:45.675Z,6.89
2023-04-15T02:07:12.524Z,6.85
2023-04-15T02:09:41.701Z,6.86
2023-04-15T02:12:18.404Z,6.87
2023-04-15T02:14:50.519Z,6.84
2023-04-15T02:17:19.871Z,6.86
2023-04-15T02:19:49.742Z,6.88
2023-04-15T02:22:19.084Z,6.86
2023-04-15T02:24:47.223Z,6.81
2023-04-15T02:27:19.596Z,6.87
2023-04-15T02:29:53.163Z,6.86
2023-04-15T02:32:24.889Z,6.86
2023-04-15T02:34:59.332Z,6.77
2023-04-15T02:37:30.657Z,6.89
2023-04-15T02:40:02.466Z,6.91
2023-04-15T02:42:30.528Z,6.89
2023-04-15T02:45:01.712Z,6.92
2023-04-15T02:47:35.092Z,6.88
2023-04-15T02:50:07.256Z,6.86
2023-04-15T02:52:41.406Z,6.85
2023-04-15T02:55:13.555Z,6.85
2023-04-15T02:57:42.973Z,6.88
2023-04-15T03:00:15.261Z,6.84
2023-04-15T03:02:47.435Z,6.91
2023-04-15T03:05:16.913Z,6.93
2023-04-15T03:07:54.060Z,6.90
2023-04-15T03:10:23.451Z,6.91
2023-04-15T03:12:52.594Z,6.93
2023-04-15T03:15:26.260Z,6.98
2023-04-15T03:17:59.554Z,7.01
2023-04-15T03:20:28.639Z,7.03
2023-04-15T03:23:02.727Z,6.97
2023-04-15T03:25:29.524Z,7.05
2023-04-15T03:28:02.797Z,7.04
2023-04-15T03:30:32.096Z,6.97
2023-04-15T03:33:03.496Z,7.01
2023-04-15T03:35:33.010Z,7.01
2023-04-15T03:38:02.214Z,7.01
2023-04-15T03:40:31.337Z,6.97
2023-04-15T03:43:00.675Z,7.00
2023-04-15T03:45:29.684Z,6.99
2023-04-15T03:48:11.421Z,6.97
2023-04-15T03:50:43.209Z,6.99
2023-04-15T03:53:14.857Z,6.99
2023-04-15T03:55:46.809Z,6.97
2023-04-15T03:58:15.814Z,6.96
2023-04-15T04:00:47.418Z,6.95
2023-04-15T04:03:17.676Z,6.95
2023-04-15T04:05:51.762Z,6.95
2023-04-15T04:08:23.002Z,6.95
2023-04-15T04:10:54.656Z,6.87
2023-04-15T04:13:23.934Z,6.84
2023-04-15T04:15:53.181Z,6.85
2023-04-15T04:18:26.967Z,6.83
2023-04-15T04:20:58.572Z,6.73
2023-04-15T04:23:30.721Z,6.65
2023-04-15T04:26:04.355Z,6.65
2023-04-15T04:28:31.214Z,6.62
2023-04-15T04:31:02.658Z,6.65
2023-04-15T04:33:31.724Z,6.66
2023-04-15T04:36:01.601Z,6.65
2023-04-15T04:38:28.443Z,6.64
2023-04-15T04:40:57.704Z,6.67
2023-04-15T04:43:24.479Z,6.61
2023-04-15T04:45:58.441Z,6.65
2023-04-15T04:48:27.738Z,6.70
2023-04-15T04:50:56.856Z,6.70
2023-04-15T04:53:25.883Z,6.73
2023-04-15T04:55:52.666Z,6.67
2023-04-15T04:58:22.032Z,6.70
2023-04-15T05:00:52.089Z,6.71
2023-04-15T05:03:22.213Z,6.70
2023-04-15T05:05:49.584Z,6.56
2023-04-15T05:08:18.615Z,6.64
2023-04-15T05:10:49.914Z,6.67
2023-04-15T05:13:19.164Z,6.68
2023-04-15T05:15:48.336Z,6.67
2023-04-15T05:18:17.620Z,6.62
2023-04-15T05:20:50.194Z,6.65
2023-04-15T05:23:17.915Z,6.58
2023-04-15T05:25:49.509Z,6.60
2023-04-15T05:28:16.603Z,6.58
2023-04-15T05:30:45.767Z,6.63
2023-04-15T05:33:17.731Z,6.58
2023-04-15T05:35:47.024Z,6.63
2023-04-15T05:38:16.339Z,6.60
2023-04-15T05:40:47.912Z,6.38
2023-04-15T05:43:14.745Z,6.42
2023-04-15T05:45:41.721Z,6.43
2023-04-15T05:48:11.018Z,6.51
2023-04-15T05:50:37.840Z,6.48
2023-04-15T05:53:09.565Z,6.57
2023-04-15T05:55:41.206Z,6.62
2023-04-15T05:58:10.366Z,6.63
2023-04-15T06:00:39.562Z,6.59
2023-04-15T06:03:08.637Z,6.63
2023-04-15T06:05:42.733Z,6.61
2023-04-15T06:08:09.832Z,6.66
2023-04-15T06:10:37.111Z,6.70
2023-04-15T06:13:07.697Z,6.74
2023-04-15T06:15:39.493Z,6.73
2023-04-15T06:18:08.493Z,6.72
2023-04-15T06:20:40.324Z,6.78
2023-04-15T06:23:12.191Z,6.78
2023-04-15T06:25:41.247Z,6.73
2023-04-15T06:28:10.247Z,6.82
2023-04-15T06:30:37.175Z,6.86
2023-04-15T06:33:06.709Z,6.85
2023-04-15T06:35:33.693Z,6.85
2023-04-15T06:38:02.800Z,6.84
2023-04-15T06:40:34.784Z,6.83
2023-04-15T06:43:05.044Z,6.93
2023-04-15T06:45:37.451Z,6.96
2023-04-15T06:48:04.573Z,6.93
2023-04-15T06:50:33.876Z,7.02
2023-04-15T06:53:05.222Z,7.04
2023-04-15T06:55:34.582Z,7.03
2023-04-15T06:58:06.928Z,7.11
2023-04-15T07:00:34.192Z,7.13
2023-04-15T07:03:05.832Z,7.13
2023-04-15T07:05:35.033Z,7.20
2023-04-15T07:08:07.055Z,7.24
2023-04-15T07:10:34.455Z,7.26
2023-04-15T07:13:01.974Z,7.35
2023-04-15T07:15:34.161Z,7.40
2023-04-15T07:18:03.797Z,7.43
2023-04-15T07:20:36.079Z,7.48
2023-04-15T07:23:05.050Z,7.50
2023-04-15T07:25:36.914Z,7.51
2023-04-15T07:28:06.558Z,7.51
2023-04-15T07:30:35.834Z,7.54
2023-04-15T07:33:05.042Z,7.58
2023-04-15T07:35:38.919Z,7.60
2023-04-15T07:38:10.569Z,7.65
2023-04-15T07:40:39.580Z,7.65
2023-04-15T07:43:06.796Z,7.67
2023-04-15T07:45:36.017Z,7.73
2023-04-15T07:48:06.831Z,7.78
2023-04-15T07:50:36.290Z,7.82
2023-04-15T07:53:09.867Z,7.84
2023-04-15T07:55:41.778Z,7.94
2023-04-15T07:58:14.023Z,8.06
2023-04-15T08:00:43.004Z,8.10
2023-04-15T08:03:14.359Z,8.20
2023-04-15T08:05:47.474Z,8.27
2023-04-15T08:08:22.516Z,8.32
2023-04-15T08:10:52.480Z,8.42
2023-04-15T08:13:25.434Z,8.46
2023-04-15T08:16:13.632Z,8.49
2023-04-15T08:18:42.928Z,8.62
2023-04-15T08:21:12.310Z,8.67
2023-04-15T08:23:39.549Z,8.70
2023-04-15T08:26:11.666Z,8.76
2023-04-15T08:28:44.305Z,8.82
2023-04-15T08:31:14.179Z,8.88
2023-04-15T08:33:41.049Z,8.90
2023-04-15T08:36:08.102Z,8.94
2023-04-15T08:38:40.075Z,8.97
2023-04-15T08:41:25.574Z,9.05
2023-04-15T08:44:05.556Z,9.09
2023-04-15T08:46:35.469Z,9.09
2023-04-15T08:49:07.396Z,9.11
2023-04-15T08:51:39.629Z,9.08
2023-04-15T08:54:09.705Z,9.17
2023-04-15T08:56:39.222Z,9.15
2023-04-15T08:59:13.346Z,9.17
2023-04-15T09:01:43.645Z,9.18
2023-04-15T09:04:14.068Z,9.20
2023-04-15T09:06:43.151Z,9.22
2023-04-15T09:09:12.452Z,9.18
2023-04-15T09:11:41.617Z,9.16
2023-04-15T09:14:08.602Z,9.19
2023-04-15T09:17:02.774Z,9.29
2023-04-15T09:19:34.336Z,9.32
2023-04-15T09:22:08.649Z,9.28
2023-04-15T09:24:42.407Z,9.31
2023-04-15T09:27:11.665Z,9.35
2023-04-15T09:29:44.237Z,9.40
2023-04-15T09:32:18.857Z,9.44
2023-04-15T09:34:48.316Z,9.44
2023-04-15T09:37:31.782Z,9.45
2023-04-15T09:40:04.306Z,9.44
2023-04-15T09:42:31.220Z,9.43
2023-04-15T09:45:12.209Z,9.46
2023-04-15T09:47:41.435Z,9.41
2023-04-15T09:50:08.602Z,9.41
2023-04-15T09:52:48.032Z,9.46
2023-04-15T09:55:18.864Z,9.45
2023-04-15T09:57:50.486Z,9.48
2023-04-15T10:00:22.505Z,9.50
2023-04-15T10:02:52.425Z,9.51
2023-04-15T10:05:22.194Z,9.53
2023-04-15T10:07:49.946Z,9.41
2023-04-15T10:10:19.226Z,9.54
2023-04-15T10:12:51.869Z,9.45
2023-04-15T10:15:25.517Z,9.50
2023-04-15T10:17:58.591Z,9.47
2023-04-15T10:20:29.211Z,9.47
2023-04-15T10:22:58.748Z,9.52
2023-04-15T10:25:33.575Z,9.52
2023-04-15T10:28:03.708Z,9.45
2023-04-15T10:30:33.880Z,9.58
2023-04-15T10:33:07.092Z,9.58
2023-04-15T10:35:37.020Z,9.52
2023-04-15T10:38:33.381Z,9.63
2023-04-15T10:41:34.791Z,9.64
2023-04-15T10:44:05.342Z,9.66
2023-04-15T10:46:36.872Z,9.67
2023-04-15T10:49:16.523Z,9.69
2023-04-15T10:51:56.228Z,9.69
2023-04-15T10:54:25.414Z,9.67
2023-04-15T10:57:08.370Z,9.68
2023-04-15T11:00:02.960Z,9.68
2023-04-15T11:02:47.554Z,9.69
2023-04-15T11:05:18.180Z,9.68
2023-04-15T11:07:47.425Z,9.68
2023-04-15T11:10:16.546Z,9.70
2023-04-15T11:12:48.740Z,9.67
2023-04-15T11:15:32.053Z,9.74
2023-04-15T11:18:08.664Z,9.75
2023-04-15T11:20:40.781Z,9.73
2023-04-15T11:23:15.269Z,9.75
2023-04-15T11:25:46.175Z,9.76
2023-04-15T11:28:16.245Z,9.69
2023-04-15T11:30:45.462Z,9.79
2023-04-15T11:33:14.850Z,9.76
2023-04-15T11:35:42.527Z,9.78
2023-04-15T11:38:15.681Z,9.83
2023-04-15T11:40:47.479Z,9.87
2023-04-15T11:43:20.955Z,9.88
2023-04-15T11:45:59.992Z,9.89
2023-04-15T11:48:37.897Z,9.89
2023-04-15T11:51:09.766Z,9.82
2023-04-15T11:53:51.268Z,9.90
2023-04-15T11:56:25.637Z,9.88
2023-04-15T11:59:03.190Z,9.91
2023-04-15T12:01:39.996Z,9.91
2023-04-15T12:04:17.720Z,9.92
2023-04-15T12:06:51.859Z,9.85
2023-04-15T12:09:23.961Z,9.89
2023-04-15T12:11:59.708Z,9.94
2023-04-15T12:14:34.737Z,9.92
2023-04-15T12:17:05.049Z,9.91
2023-04-15T12:19:36.870Z,9.91
2023-04-15T12:22:11.139Z,9.80
2023-04-15T12:24:48.852Z,9.80
2023-04-15T12:27:21.337Z,9.79
2023-04-15T12:29:52.921Z,9.80
2023-04-15T12:32:22.981Z,9.79
2023-04-15T12:34:57.179Z,9.80
2023-04-15T12:37:28.882Z,9.79
2023-04-15T12:40:00.698Z,9.75
2023-04-15T12:42:32.531Z,9.74
2023-04-15T12:44:59.278Z,9.78
2023-04-15T12:47:26.303Z,9.76
2023-04-15T12:49:56.079Z,9.71
2023-04-15T12:52:27.499Z,9.74
2023-04-15T12:54:54.241Z,9.71
2023-04-15T12:57:25.413Z,9.68
2023-04-15T12:59:57.085Z,9.70
2023-04-15T13:02:25.859Z,9.70
2023-04-15T13:04:55.218Z,9.68
2023-04-15T13:07:24.319Z,9.71
2023-04-15T13:09:53.698Z,9.69
2023-04-15T13:12:22.935Z,9.71
2023-04-15T13:14:57.156Z,9.61
2023-04-15T13:17:29.979Z,9.70
2023-04-15T13:19:59.496Z,9.69
2023-04-15T13:22:28.761Z,9.72
2023-04-15T13:25:02.624Z,9.69
2023-04-15T13:27:29.425Z,9.68
2023-04-15T13:30:01.025Z,9.65
2023-04-15T13:32:33.435Z,9.57
2023-04-15T13:35:02.511Z,9.66
2023-04-15T13:37:34.235Z,9.64
2023-04-15T13:40:07.465Z,9.67
2023-04-15T13:42:39.555Z,9.66
2023-04-15T13:45:09.134Z,9.66
2023-04-15T13:47:38.707Z,9.59
2023-04-15T13:50:10.531Z,9.63
2023-04-15T13:52:42.140Z,9.64
2023-04-15T13:55:22.266Z,9.57
2023-04-15T13:57:51.042Z,9.52
2023-04-15T14:00:20.504Z,9.54
2023-04-15T14:02:57.789Z,9.56
2023-04-15T14:05:24.732Z,9.51
2023-04-15T14:07:51.525Z,9.54
2023-04-15T14:10:18.596Z,9.51
2023-04-15T14:12:45.498Z,9.55
2023-04-15T14:15:17.765Z,9.49
2023-04-15T14:17:47.127Z,9.53
2023-04-15T14:20:18.751Z,9.40
2023-04-15T14:22:52.599Z,9.48
2023-04-15T14:25:33.633Z,9.42
2023-04-15T14:28:03.790Z,9.45
2023-04-15T14:30:31.015Z,9.47
2023-04-15T14:33:02.521Z,9.46
2023-04-15T14:35:31.894Z,9.41
2023-04-15T14:38:01.058Z,9.39
2023-04-15T14:40:30.512Z,9.44
2023-04-15T14:42:57.426Z,9.38
2023-04-15T14:45:26.477Z,9.41
2023-04-15T14:47:57.836Z,9.43
2023-04-15T14:50:31.445Z,9.38
2023-04-15T14:53:01.362Z,9.45
2023-04-15T14:55:28.287Z,9.40
2023-04-15T14:57:58.540Z,9.45
2023-04-15T15:00:32.747Z,9.41
2023-04-15T15:03:02.035Z,9.44
2023-04-15T15:05:31.328Z,9.42
2023-04-15T15:08:02.915Z,9.44
2023-04-15T15:10:48.205Z,9.41
2023-04-15T15:13:18.067Z,9.39
2023-04-15T15:15:49.573Z,9.31
2023-04-15T15:18:18.923Z,9.33
2023-04-15T15:20:46.508Z,9.22
2023-04-15T15:23:18.066Z,9.24
2023-04-15T15:25:51.814Z,9.14
2023-04-15T15:28:22.066Z,9.09
2023-04-15T15:30:56.059Z,9.17
2023-04-15T15:33:29.011Z,9.15
2023-04-15T15:36:03.858Z,9.09
2023-04-15T15:38:33.873Z,9.05
2023-04-15T15:41:00.821Z,9.00
2023-04-15T15:43:27.715Z,8.96
2023-04-15T15:45:57.136Z,8.90
2023-04-15T15:48:24.560Z,8.90
2023-04-15T15:50:55.961Z,8.89
2023-04-15T15:53:26.019Z,8.88
2023-04-15T15:55:59.914Z,8.86
2023-04-15T15:58:31.475Z,8.76
2023-04-15T16:01:00.416Z,8.72
2023-04-15T16:03:31.262Z,8.81
2023-04-15T16:06:00.461Z,8.79
2023-04-15T16:08:33.396Z,8.77
2023-04-15T16:11:04.670Z,8.81
2023-04-15T16:13:36.236Z,8.80
2023-04-15T16:16:07.625Z,8.79
2023-04-15T16:18:37.502Z,8.78
2023-04-15T16:21:14.088Z,8.80
2023-04-15T16:23:46.992Z,8.79
2023-04-15T16:26:14.118Z,8.73
2023-04-15T16:28:41.435Z,8.77
2023-04-15T16:31:08.454Z,8.76
2023-04-15T16:33:35.737Z,8.75
2023-04-15T16:36:05.395Z,8.74
2023-04-15T16:38:40.025Z,8.68
2023-04-15T16:41:07.095Z,8.68
2023-04-15T16:43:38.756Z,8.72
2023-04-15T16:46:11.044Z,8.69
2023-04-15T16:48:40.375Z,8.59
2023-04-15T16:51:19.037Z,8.68
2023-04-15T16:53:53.711Z,8.66
2023-04-15T16:56:23.775Z,8.60
2023-04-15T16:58:55.372Z,8.55
2023-04-15T17:01:26.790Z,8.56
2023-04-15T17:03:56.512Z,8.55
2023-04-15T17:06:28.091Z,8.56
2023-04-15T17:08:55.008Z,8.54
2023-04-15T17:11:24.361Z,8.48
2023-04-15T17:13:55.960Z,8.48
2023-04-15T17:16:28.131Z,8.45
2023-04-15T17:19:02.315Z,8.41
2023-04-15T17:21:32.295Z,8.35
2023-04-15T17:24:02.420Z,8.29
2023-04-15T17:26:32.059Z,8.33
2023-04-15T17:29:04.854Z,8.30
2023-04-15T17:31:36.221Z,8.22
2023-04-15T17:34:09.365Z,8.23
2023-04-15T17:36:38.852Z,8.18
2023-04-15T17:39:05.866Z,8.22
2023-04-15T17:41:35.451Z,8.18
2023-04-15T17:44:11.785Z,8.15
2023-04-15T17:46:43.582Z,8.09
2023-04-15T17:49:12.581Z,8.10
2023-04-15T17:51:39.421Z,8.09
2023-04-15T17:54:08.843Z,8.24
2023-04-15T17:56:35.861Z,8.17
2023-04-15T17:59:02.816Z,8.06
2023-04-15T18:01:29.769Z,7.92
2023-04-15T18:03:59.133Z,8.13
2023-04-15T18:06:28.620Z,7.93
2023-04-15T18:08:56.315Z,7.81
2023-04-15T18:11:23.121Z,7.78
2023-04-15T18:14:04.986Z,7.68
2023-04-15T18:16:32.384Z,7.68
2023-04-15T18:18:59.763Z,7.70
2023-04-15T18:21:29.501Z,7.69
2023-04-15T18:24:01.158Z,7.71
2023-04-15T18:26:28.982Z,7.69
2023-04-15T18:29:00.258Z,7.58
2023-04-15T18:31:33.238Z,7.58
2023-04-15T18:34:06.774Z,7.54
2023-04-15T18:36:34.175Z,7.52
2023-04-15T18:39:01.323Z,7.49
2023-04-15T18:41:28.296Z,7.48
2023-04-15T18:43:56.439Z,7.50
2023-04-15T18:46:25.628Z,7.47
2023-04-15T18:48:52.440Z,7.40
2023-04-15T18:51:21.744Z,7.42
2023-04-15T18:53:51.705Z,7.39
2023-04-15T18:56:21.054Z,7.44
2023-04-15T18:59:25.005Z,7.43
2023-04-15T19:01:37.811Z,7.34
2023-04-15T19:04:04.814Z,7.34
2023-04-15T19:06:34.229Z,7.36
2023-04-15T19:09:06.282Z,7.37
2023-04-15T19:11:37.612Z,7.37
2023-04-15T19:14:04.448Z,7.28
2023-04-15T19:16:37.167Z,7.36
2023-04-15T19:19:07.796Z,7.31
2023-04-15T19:21:38.011Z,7.32
2023-04-15T19:24:04.957Z,7.26
2023-04-15T19:26:34.243Z,7.24
2023-04-15T19:29:03.618Z,7.20
2023-04-15T19:31:30.726Z,7.29
2023-04-15T19:33:59.836Z,7.24
2023-04-15T19:36:28.984Z,7.30
2023-04-15T19:38:59.222Z,7.29
2023-04-15T19:41:26.528Z,7.29
2023-04-15T19:43:53.324Z,7.11
2023-04-15T19:46:23.328Z,7.22
2023-04-15T19:48:54.920Z,7.18
2023-04-15T19:51:24.107Z,7.17
2023-04-15T19:53:51.420Z,7.14
2023-04-15T19:56:24.312Z,7.05
2023-04-15T19:58:53.258Z,7.15
2023-04-15T20:01:23.167Z,7.15
2023-04-15T20:03:51.579Z,7.15
2023-04-15T20:06:21.772Z,7.03
2023-04-15T20:08:52.001Z,7.07
2023-04-15T20:11:22.329Z,7.06
2023-04-15T20:13:51.383Z,7.18
2023-04-15T20:16:18.317Z,7.09
2023-04-15T20:18:49.415Z,7.14
2023-04-15T20:21:18.712Z,7.10
2023-04-15T20:23:45.696Z,7.08
2023-04-15T20:26:18.370Z,7.10
2023-04-15T20:28:52.224Z,7.18
2023-04-15T20:31:19.009Z,7.21
2023-04-15T20:33:55.570Z,7.16
2023-04-15T20:36:22.575Z,7.16
2023-04-15T20:38:54.187Z,7.13
2023-04-15T20:41:25.773Z,7.17
2023-04-15T20:43:54.959Z,7.09
2023-04-15T20:46:22.714Z,7.18
2023-04-15T20:48:52.750Z,7.09
2023-04-15T20:51:21.805Z,7.03
2023-04-15T20:53:53.469Z,7.15
2023-04-15T20:56:22.785Z,7.10
2023-04-15T20:58:52.213Z,7.11
2023-04-15T21:01:19.114Z,7.02
2023-04-15T21:03:46.470Z,7.02
2023-04-15T21:06:13.717Z,7.04
2023-04-15T21:08:43.834Z,7.12
2023-04-15T21:11:16.478Z,6.97
2023-04-15T21:13:47.854Z,7.08
2023-04-15T21:16:14.654Z,7.03
2023-04-15T21:18:41.661Z,7.04
2023-04-15T21:21:13.238Z,7.08
2023-04-15T21:23:42.716Z,7.10
2023-04-15T21:26:11.827Z,7.08
2023-04-15T21:28:39.456Z,7.08
2023-04-15T21:31:08.778Z,7.02
2023-04-15T21:33:40.331Z,7.09
2023-04-15T21:36:07.548Z,7.00
2023-04-15T21:38:36.811Z,7.07
2023-04-15T21:41:09.816Z,7.05
2023-04-15T21:43:39.717Z,6.96
2023-04-15T21:46:21.964Z,6.85
2023-04-15T21:48:59.762Z,7.01
2023-04-15T21:51:26.928Z,6.95
2023-04-15T21:53:58.185Z,6.94
2023-04-15T21:56:27.566Z,6.85
2023-04-15T21:58:58.165Z,6.83
2023-04-15T22:01:29.975Z,6.77
2023-04-15T22:03:56.936Z,6.78
2023-04-15T22:06:23.973Z,6.68
2023-04-15T22:08:56.862Z,6.78
2023-04-15T22:11:28.679Z,6.75
2023-04-15T22:13:59.028Z,6.76
2023-04-15T22:16:28.739Z,6.79
2023-04-15T22:18:58.043Z,6.70
2023-04-15T22:21:27.593Z,6.69
2023-04-15T22:24:39.237Z,6.77
2023-04-15T22:26:43.730Z,6.60
2023-04-15T22:29:13.125Z,6.67
2023-04-15T22:31:44.981Z,6.70
2023-04-15T22:34:16.317Z,6.63
2023-04-15T22:36:45.617Z,6.57
2023-04-15T22:39:17.551Z,6.63
2023-04-15T22:41:49.894Z,6.45
2023-04-15T22:44:21.409Z,6.45
2023-04-15T22:46:51.251Z,6.37
2023-04-15T22:49:18.052Z,6.35
2023-04-15T22:51:47.566Z,6.40
2023-04-15T22:54:14.315Z,6.29
2023-04-15T22:56:43.327Z,6.26
2023-04-15T22:59:10.221Z,6.37
2023-04-15T23:01:39.730Z,6.31
2023-04-15T23:04:22.940Z,6.37
2023-04-15T23:06:54.716Z,6.24
2023-04-15T23:09:26.453Z,6.32
2023-04-15T23:11:56.798Z,6.35
2023-04-15T23:14:29.163Z,6.26
2023-04-15T23:17:01.917Z,6.40
2023-04-15T23:19:33.718Z,6.27
2023-04-15T23:22:07.123Z,6.30
2023-04-15T23:24:38.685Z,6.23
2023-04-15T23:27:05.478Z,6.18
2023-04-15T23:29:32.254Z,6.24
2023-04-15T23:32:03.800Z,5.99
2023-04-15T23:34:33.212Z,6.09
2023-04-15T23:36:59.971Z,5.98
2023-04-15T23:39:30.580Z,6.07
2023-04-15T23:41:59.600Z,6.10
2023-04-15T23:44:28.850Z,6.10
2023-04-15T23:47:00.628Z,6.12
2023-04-15T23:49:27.499Z,6.10
2023-04-15T23:51:57.384Z,6.11
2023-04-15T23:54:24.348Z,6.02
2023-04-15T23:56:53.451Z,5.81
2023-04-15T23:59:23.273Z,5.82
